In Rescue
 
Open Full Screen Window  High Contrast Mode
Wind Gusting 00 knots
08
April 20, 2024 8:58 AM CDT
Weather Information
Wind Direction
  300 °
Wind Speed
  08 kt (9 mph)
Wind Gust
  00 kt (0 mph)
Altimeter
30.28 in
Visibility
10 SM
Temperature
-01° C
30° F
Dewpoint
-05° C
23° F
Humidity
74%
Sky Condition
Clear
VFR

METAR KHCO 201358Z AUTO 30008KT 10SM CLR M01/M05 A3028 RMK AO2

FAA Disclaimer: The data displayed is for advisory purposes only and is not to be used for flight planning or operations.